createdAt,value
2022-11-27T00:00:54.627Z,51.179203
2022-11-27T00:01:54.584Z,51.179241
2022-11-27T00:02:54.770Z,51.179276
2022-11-27T00:03:54.626Z,51.179268
2022-11-27T00:04:54.560Z,51.179226
2022-11-27T00:05:54.608Z,51.179222
2022-11-27T00:06:54.567Z,51.179222
2022-11-27T00:07:54.576Z,51.179222
2022-11-27T00:08:54.525Z,51.179234
2022-11-27T00:09:54.571Z,51.179245
2022-11-27T00:10:54.496Z,51.179245
2022-11-27T00:11:54.489Z,51.179245
2022-11-27T00:12:54.535Z,51.179260
2022-11-27T00:13:54.465Z,51.179272
2022-11-27T00:14:55.718Z,51.179279
2022-11-27T00:15:55.508Z,51.179249
2022-11-27T00:16:54.449Z,51.179264
2022-11-27T00:17:54.436Z,51.179276
2022-11-27T00:18:54.467Z,51.179226
2022-11-27T00:19:54.437Z,51.179222
2022-11-27T00:20:54.410Z,51.179272
2022-11-27T00:21:54.381Z,51.179256
2022-11-27T00:22:54.383Z,51.179272
2022-11-27T00:23:54.392Z,51.179230
2022-11-27T00:24:54.346Z,51.179199
2022-11-27T00:25:54.374Z,51.179214
2022-11-27T00:26:54.330Z,51.179230
2022-11-27T00:27:54.329Z,51.179211
2022-11-27T00:28:55.350Z,51.179203
2022-11-27T00:29:54.312Z,51.179234
2022-11-27T00:30:54.356Z,51.179279
2022-11-27T00:31:54.301Z,51.179279
2022-11-27T00:32:54.345Z,51.179283
2022-11-27T00:33:54.264Z,51.179302
2022-11-27T00:34:54.281Z,51.179260
2022-11-27T00:35:54.248Z,51.179241
2022-11-27T00:36:54.229Z,51.179260
2022-11-27T00:37:54.249Z,51.179264
2022-11-27T00:39:27.691Z,51.179306
2022-11-27T00:39:54.453Z,51.179272
2022-11-27T00:40:54.326Z,51.179253
2022-11-27T00:41:54.364Z,51.179283
2022-11-27T00:42:54.240Z,51.179317
2022-11-27T00:43:54.208Z,51.179276
2022-11-27T00:44:54.182Z,51.179249
2022-11-27T00:45:54.287Z,51.179260
2022-11-27T00:46:54.204Z,51.179260
2022-11-27T00:47:54.128Z,51.179276
2022-11-27T00:48:54.151Z,51.179276
2022-11-27T00:49:54.097Z,51.179283
2022-11-27T00:50:54.133Z,51.179295
2022-11-27T00:51:54.121Z,51.179333
2022-11-27T00:52:54.092Z,51.179295
2022-11-27T00:53:54.106Z,51.179279
2022-11-27T00:54:54.106Z,51.179295
2022-11-27T00:55:54.074Z,51.179295
2022-11-27T00:56:54.040Z,51.179310
2022-11-27T00:57:54.089Z,51.179298
2022-11-27T00:58:54.029Z,51.179276
2022-11-27T00:59:54.002Z,51.179321
2022-11-27T01:00:54.024Z,51.179291
2022-11-27T01:01:54.038Z,51.179314
2022-11-27T01:02:54.016Z,51.179348
2022-11-27T01:03:54.011Z,51.179379
2022-11-27T01:04:53.986Z,51.179321
2022-11-27T01:05:53.965Z,51.179253
2022-11-27T01:06:53.995Z,51.179237
2022-11-27T01:07:54.027Z,51.179314
2022-11-27T01:08:53.963Z,51.179302
2022-11-27T01:09:53.941Z,51.179264
2022-11-27T01:10:55.034Z,51.179245
2022-11-27T01:11:54.916Z,51.179276
2022-11-27T01:12:53.887Z,51.179218
2022-11-27T01:13:53.922Z,51.179153
2022-11-27T01:14:53.877Z,51.179165
2022-11-27T01:15:53.891Z,51.179230
2022-11-27T01:16:53.891Z,51.179256
2022-11-27T01:17:53.852Z,51.179268
2022-11-27T01:18:53.843Z,51.179268
2022-11-27T01:19:53.836Z,51.179333
2022-11-27T01:20:53.833Z,51.179249
2022-11-27T01:21:53.790Z,51.179314
2022-11-27T01:22:53.782Z,51.179245
2022-11-27T01:23:53.842Z,51.179276
2022-11-27T01:24:53.775Z,51.179329
2022-11-27T01:25:53.749Z,51.179314
2022-11-27T01:26:53.766Z,51.179283
2022-11-27T01:27:53.734Z,51.179237
2022-11-27T01:28:53.763Z,51.179249
2022-11-27T01:29:53.720Z,51.179222
2022-11-27T01:30:53.776Z,51.179203
2022-11-27T01:31:53.714Z,51.179249
2022-11-27T01:32:53.721Z,51.179283
2022-11-27T01:33:53.691Z,51.179272
2022-11-27T01:34:54.501Z,51.179237
2022-11-27T01:35:54.697Z,51.179276
2022-11-27T01:36:53.663Z,51.179222
2022-11-27T01:37:53.626Z,51.179241
2022-11-27T01:38:53.635Z,51.179253
2022-11-27T01:39:53.650Z,51.179218
2022-11-27T01:40:53.598Z,51.179207
2022-11-27T01:41:53.609Z,51.179260
2022-11-27T01:42:53.610Z,51.179264
2022-11-27T01:43:53.561Z,51.179234
2022-11-27T01:44:53.562Z,51.179207
2022-11-27T01:45:53.602Z,51.179230
2022-11-27T01:46:53.615Z,51.179241
2022-11-27T01:47:53.536Z,51.179268
2022-11-27T01:48:53.538Z,51.179302
2022-11-27T01:49:53.525Z,51.179276
2022-11-27T01:50:53.507Z,51.179276
2022-11-27T01:51:53.541Z,51.179245
2022-11-27T01:52:53.475Z,51.179253
2022-11-27T01:53:53.486Z,51.179268
2022-11-27T01:54:53.499Z,51.179230
2022-11-27T01:55:53.469Z,51.179264
2022-11-27T01:56:53.468Z,51.179264
2022-11-27T01:57:53.416Z,51.179295
2022-11-27T01:58:53.433Z,51.179321
2022-11-27T01:59:53.399Z,51.179321
2022-11-27T02:00:53.376Z,51.179340
2022-11-27T02:01:53.447Z,51.179295
2022-11-27T02:02:53.415Z,51.179291
2022-11-27T02:03:53.373Z,51.179295
2022-11-27T02:04:53.391Z,51.179306
2022-11-27T02:05:53.370Z,51.179264
2022-11-27T02:06:53.323Z,51.179253
2022-11-27T02:07:53.403Z,51.179268
2022-11-27T02:08:53.328Z,51.179283
2022-11-27T02:09:53.282Z,51.179279
2022-11-27T02:10:54.323Z,51.179264
2022-11-27T02:11:53.307Z,51.179211
2022-11-27T02:12:53.296Z,51.179230
2022-11-27T02:13:53.251Z,51.179211
2022-11-27T02:14:53.274Z,51.179230
2022-11-27T02:15:53.302Z,51.179291
2022-11-27T02:16:53.259Z,51.179348
2022-11-27T02:17:53.235Z,51.179298
2022-11-27T02:18:53.246Z,51.179306
2022-11-27T02:19:53.251Z,51.179264
2022-11-27T02:20:53.181Z,51.179222
2022-11-27T02:21:53.179Z,51.179245
2022-11-27T02:22:53.186Z,51.179237
2022-11-27T02:23:53.150Z,51.179195
2022-11-27T02:24:53.135Z,51.179123
2022-11-27T02:25:53.155Z,51.179131
2022-11-27T02:26:53.153Z,51.179180
2022-11-27T02:27:53.110Z,51.179214
2022-11-27T02:28:53.109Z,51.179268
2022-11-27T02:29:53.101Z,51.179283
2022-11-27T02:30:53.172Z,51.179276
2022-11-27T02:31:53.102Z,51.179279
2022-11-27T02:32:53.110Z,51.179207
2022-11-27T02:33:53.070Z,51.179207
2022-11-27T02:34:53.028Z,51.179192
2022-11-27T02:35:53.057Z,51.179203
2022-11-27T02:36:53.027Z,51.179241
2022-11-27T02:37:53.046Z,51.179237
2022-11-27T02:38:53.004Z,51.179226
2022-11-27T02:39:53.008Z,51.179237
2022-11-27T02:40:52.995Z,51.179276
2022-11-27T02:41:52.961Z,51.179276
2022-11-27T02:42:53.020Z,51.179291
2022-11-27T02:43:52.957Z,51.179253
2022-11-27T02:44:52.945Z,51.179279
2022-11-27T02:45:52.964Z,51.179230
2022-11-27T02:46:52.968Z,51.179230
2022-11-27T02:47:52.908Z,51.179241
2022-11-27T02:48:52.899Z,51.179272
2022-11-27T02:49:52.901Z,51.179276
2022-11-27T02:50:52.905Z,51.179276
2022-11-27T02:51:52.890Z,51.179287
2022-11-27T02:52:52.865Z,51.179279
2022-11-27T02:53:52.867Z,51.179287
2022-11-27T02:54:52.874Z,51.179264
2022-11-27T02:55:52.805Z,51.179253
2022-11-27T02:56:52.858Z,51.179253
2022-11-27T02:57:52.819Z,51.179256
2022-11-27T02:58:52.864Z,51.179237
2022-11-27T02:59:52.803Z,51.179260
2022-11-27T03:00:52.780Z,51.179283
2022-11-27T03:01:52.829Z,51.179276
2022-11-27T03:02:52.842Z,51.179279
2022-11-27T03:03:52.731Z,51.179237
2022-11-27T03:04:52.775Z,51.179245
2022-11-27T03:05:52.740Z,51.179283
2022-11-27T03:06:52.699Z,51.179302
2022-11-27T03:07:52.794Z,51.179302
2022-11-27T03:08:52.694Z,51.179272
2022-11-27T03:09:52.672Z,51.179268
2022-11-27T03:10:52.672Z,51.179279
2022-11-27T03:11:52.688Z,51.179264
2022-11-27T03:12:52.665Z,51.179245
2022-11-27T03:13:52.663Z,51.179249
2022-11-27T03:14:52.698Z,51.179298
2022-11-27T03:15:52.660Z,51.179272
2022-11-27T03:16:53.239Z,51.179245
2022-11-27T03:17:52.618Z,51.179237
2022-11-27T03:18:52.611Z,51.179237
2022-11-27T03:19:52.594Z,51.179264
2022-11-27T03:20:52.568Z,51.179256
2022-11-27T03:21:52.556Z,51.179276
2022-11-27T03:22:52.612Z,51.179283
2022-11-27T03:23:52.543Z,51.179287
2022-11-27T03:24:52.513Z,51.179329
2022-11-27T03:25:52.516Z,51.179260
2022-11-27T03:26:52.536Z,51.179222
2022-11-27T03:27:52.577Z,51.179256
2022-11-27T03:28:52.501Z,51.179237
2022-11-27T03:29:52.462Z,51.179268
2022-11-27T03:30:52.583Z,51.179264
2022-11-27T03:31:52.483Z,51.179241
2022-11-27T03:32:52.441Z,51.179253
2022-11-27T03:33:52.459Z,51.179253
2022-11-27T03:34:52.412Z,51.179237
2022-11-27T03:35:52.408Z,51.179279
2022-11-27T03:36:52.404Z,51.179264
2022-11-27T03:37:52.443Z,51.179283
2022-11-27T03:38:52.378Z,51.179237
2022-11-27T03:39:52.363Z,51.179276
2022-11-27T03:40:52.401Z,51.179234
2022-11-27T03:41:52.354Z,51.179260
2022-11-27T03:42:52.359Z,51.179260
2022-11-27T03:43:52.432Z,51.179249
2022-11-27T03:44:52.325Z,51.179256
2022-11-27T03:45:52.300Z,51.179237
2022-11-27T03:46:52.447Z,51.179241
2022-11-27T03:47:52.408Z,51.179230
2022-11-27T03:48:52.279Z,51.179245
2022-11-27T03:49:52.280Z,51.179272
2022-11-27T03:50:52.268Z,51.179302
2022-11-27T03:51:52.234Z,51.179249
2022-11-27T03:52:52.231Z,51.179214
2022-11-27T03:53:52.247Z,51.179264
2022-11-27T03:54:52.214Z,51.179230
2022-11-27T03:55:52.182Z,51.179218
2022-11-27T03:56:52.252Z,51.179272
2022-11-27T03:57:52.198Z,51.179291
2022-11-27T03:58:52.187Z,51.179279
2022-11-27T03:59:52.191Z,51.179207
2022-11-27T04:00:52.195Z,51.179333
2022-11-27T04:01:52.230Z,51.179317
2022-11-27T04:02:52.195Z,51.179218
2022-11-27T04:03:52.236Z,51.179222
2022-11-27T04:04:52.111Z,51.179352
2022-11-27T04:05:52.115Z,51.179295
2022-11-27T04:06:52.090Z,51.179279
2022-11-27T04:07:52.129Z,51.179298
2022-11-27T04:08:52.085Z,51.179249
2022-11-27T04:09:52.065Z,51.179249
2022-11-27T04:10:52.089Z,51.179241
2022-11-27T04:11:52.071Z,51.179218
2022-11-27T04:12:52.019Z,51.179329
2022-11-27T04:13:52.019Z,51.179264
2022-11-27T04:14:52.011Z,51.179192
2022-11-27T04:15:52.029Z,51.179161
2022-11-27T04:16:52.027Z,51.179226
2022-11-27T04:17:51.959Z,51.179230
2022-11-27T04:18:52.016Z,51.179226
2022-11-27T04:19:51.970Z,51.179237
2022-11-27T04:20:51.966Z,51.179203
2022-11-27T04:21:51.936Z,51.179222
2022-11-27T04:22:52.010Z,51.179253
2022-11-27T04:23:51.897Z,51.179249
2022-11-27T04:24:51.912Z,51.179230
2022-11-27T04:25:51.947Z,51.179195
2022-11-27T04:26:51.869Z,51.179234
2022-11-27T04:27:51.941Z,51.179253
2022-11-27T04:28:51.917Z,51.179207
2022-11-27T04:29:51.919Z,51.179192
2022-11-27T04:30:51.884Z,51.179241
2022-11-27T04:31:51.879Z,51.179245
2022-11-27T04:32:51.829Z,51.179226
2022-11-27T04:34:12.886Z,51.179211
2022-11-27T04:34:51.807Z,51.179195
2022-11-27T04:35:51.833Z,51.179230
2022-11-27T04:36:51.770Z,51.179272
2022-11-27T04:37:51.765Z,51.179256
2022-11-27T04:38:51.741Z,51.179253
2022-11-27T04:39:51.736Z,51.179253
2022-11-27T04:40:51.766Z,51.179272
2022-11-27T04:41:51.749Z,51.179245
2022-11-27T04:42:51.732Z,51.179237
2022-11-27T04:43:51.700Z,51.179218
2022-11-27T04:44:51.711Z,51.179176
2022-11-27T04:45:51.683Z,51.179123
2022-11-27T04:46:51.710Z,51.179192
2022-11-27T04:47:51.634Z,51.179264
2022-11-27T04:48:51.661Z,51.179302
2022-11-27T04:49:51.687Z,51.179256
2022-11-27T04:50:51.672Z,51.179173
2022-11-27T04:51:51.627Z,51.179234
2022-11-27T04:52:51.610Z,51.179298
2022-11-27T04:53:51.624Z,51.179192
2022-11-27T04:54:55.373Z,51.179176
2022-11-27T04:55:53.602Z,51.179298
2022-11-27T04:56:51.565Z,51.179405
2022-11-27T04:57:51.589Z,51.179237
2022-11-27T04:58:51.544Z,51.179211
2022-11-27T04:59:51.547Z,51.179165
2022-11-27T05:00:51.638Z,51.179180
2022-11-27T05:01:51.526Z,51.179264
2022-11-27T05:02:51.533Z,51.179321
2022-11-27T05:03:51.492Z,51.179344
2022-11-27T05:04:51.491Z,51.179283
2022-11-27T05:05:51.540Z,51.179310
2022-11-27T05:06:51.476Z,51.179253
2022-11-27T05:07:51.495Z,51.179153
2022-11-27T05:08:51.427Z,51.179184
2022-11-27T05:09:51.461Z,51.179195
2022-11-27T05:10:51.469Z,51.179173
2022-11-27T05:11:51.407Z,51.179165
2022-11-27T05:12:51.412Z,51.179367
2022-11-27T05:13:51.388Z,51.179420
2022-11-27T05:14:51.381Z,51.179184
2022-11-27T05:15:51.469Z,51.179195
2022-11-27T05:16:51.363Z,51.179260
2022-11-27T05:17:51.336Z,51.179165
2022-11-27T05:18:51.325Z,51.179260
2022-11-27T05:19:51.385Z,51.179443
2022-11-27T05:20:51.304Z,51.179394
2022-11-27T05:21:51.401Z,51.179253
2022-11-27T05:22:51.311Z,51.179329
2022-11-27T05:23:51.286Z,51.179279
2022-11-27T05:24:51.296Z,51.179302
2022-11-27T05:25:51.308Z,51.179180
2022-11-27T05:26:51.268Z,51.179203
2022-11-27T05:27:51.225Z,51.179207
2022-11-27T05:28:51.253Z,51.179310
2022-11-27T05:29:51.207Z,51.179253
2022-11-27T05:30:51.203Z,51.179298
2022-11-27T05:31:51.324Z,51.179291
2022-11-27T05:32:51.198Z,51.179249
2022-11-27T05:33:51.170Z,51.179260
2022-11-27T05:34:51.195Z,51.179256
2022-11-27T05:35:51.196Z,51.179249
2022-11-27T05:36:51.197Z,51.179176
2022-11-27T05:37:51.241Z,51.179169
2022-11-27T05:38:51.132Z,51.179256
2022-11-27T05:39:51.159Z,51.179226
2022-11-27T05:40:51.104Z,51.179230
2022-11-27T05:41:51.089Z,51.179298
2022-11-27T05:42:51.080Z,51.179276
2022-11-27T05:43:51.143Z,51.179295
2022-11-27T05:44:56.686Z,51.179298
2022-11-27T05:45:53.071Z,51.179272
2022-11-27T05:46:51.076Z,51.179272
2022-11-27T05:47:51.042Z,51.179264
2022-11-27T05:48:51.030Z,51.179241
2022-11-27T05:49:51.023Z,51.179264
2022-11-27T05:50:51.007Z,51.179283
2022-11-27T05:51:51.864Z,51.179279
2022-11-27T05:52:52.008Z,51.179253
2022-11-27T05:53:51.042Z,51.179218
2022-11-27T05:54:51.029Z,51.179207
2022-11-27T05:55:50.993Z,51.179226
2022-11-27T05:56:51.006Z,51.179207
2022-11-27T05:57:50.961Z,51.179184
2022-11-27T05:58:50.925Z,51.179165
2022-11-27T05:59:50.936Z,51.179184
2022-11-27T06:00:50.902Z,51.179264
2022-11-27T06:01:50.952Z,51.179287
2022-11-27T06:02:51.048Z,51.179256
2022-11-27T06:03:50.970Z,51.179237
2022-11-27T06:04:50.852Z,51.179291
2022-11-27T06:05:50.874Z,51.179245
2022-11-27T06:06:50.853Z,51.179188
2022-11-27T06:07:50.883Z,51.179199
2022-11-27T06:08:50.805Z,51.179237
2022-11-27T06:09:50.917Z,51.179264
2022-11-27T06:10:50.802Z,51.179306
2022-11-27T06:11:50.809Z,51.179298
2022-11-27T06:12:50.805Z,51.179291
2022-11-27T06:13:50.769Z,51.179306
2022-11-27T06:14:50.762Z,51.179295
2022-11-27T06:15:50.721Z,51.179291
2022-11-27T06:16:50.830Z,51.179333
2022-11-27T06:17:50.699Z,51.179291
2022-11-27T06:18:50.720Z,51.179253
2022-11-27T06:19:50.725Z,51.179279
2022-11-27T06:20:53.069Z,51.179287
2022-11-27T06:21:51.669Z,51.179272
2022-11-27T06:22:50.658Z,51.179298
2022-11-27T06:23:50.690Z,51.179333
2022-11-27T06:24:50.645Z,51.179321
2022-11-27T06:25:50.747Z,51.179279
2022-11-27T06:26:50.672Z,51.179283
2022-11-27T06:27:50.622Z,51.179287
2022-11-27T06:28:50.666Z,51.179283
2022-11-27T06:29:50.618Z,51.179268
2022-11-27T06:30:50.596Z,51.179276
2022-11-27T06:31:50.618Z,51.179291
2022-11-27T06:32:50.595Z,51.179302
2022-11-27T06:33:50.554Z,51.179276
2022-11-27T06:34:50.557Z,51.179317
2022-11-27T06:35:50.562Z,51.179348
2022-11-27T06:36:50.521Z,51.179306
2022-11-27T06:37:50.538Z,51.179260
2022-11-27T06:38:50.528Z,51.179264
2022-11-27T06:40:22.389Z,51.179234
2022-11-27T06:40:50.457Z,51.179222
2022-11-27T06:41:50.551Z,51.179241
2022-11-27T06:42:50.438Z,51.179272
2022-11-27T06:43:50.436Z,51.179283
2022-11-27T06:44:50.438Z,51.179302
2022-11-27T06:45:50.454Z,51.179272
2022-11-27T06:46:50.414Z,51.179234
2022-11-27T06:47:50.398Z,51.179264
2022-11-27T06:48:50.396Z,51.179260
2022-11-27T06:49:50.366Z,51.179291
2022-11-27T06:50:50.365Z,51.179249
2022-11-27T06:51:50.399Z,51.179253
2022-11-27T06:52:50.360Z,51.179230
2022-11-27T06:53:50.382Z,51.179218
2022-11-27T06:54:50.330Z,51.179203
2022-11-27T06:55:50.323Z,51.179218
2022-11-27T06:56:50.316Z,51.179222
2022-11-27T06:57:50.308Z,51.179249
2022-11-27T06:58:50.440Z,51.179291
2022-11-27T06:59:51.260Z,51.179333
2022-11-27T07:00:50.334Z,51.179333
2022-11-27T07:01:50.305Z,51.179325
2022-11-27T07:02:50.234Z,51.179302
2022-11-27T07:03:50.236Z,51.179276
2022-11-27T07:04:50.212Z,51.179276
2022-11-27T07:05:50.205Z,51.179279
2022-11-27T07:06:50.214Z,51.179268
2022-11-27T07:07:50.275Z,51.179268
2022-11-27T07:08:50.191Z,51.179283
2022-11-27T07:09:50.163Z,51.179279
2022-11-27T07:10:50.146Z,51.179302
2022-11-27T07:11:50.136Z,51.179306
2022-11-27T07:12:50.127Z,51.179279
2022-11-27T07:13:50.157Z,51.179272
2022-11-27T07:14:50.204Z,51.179287
2022-11-27T07:15:50.103Z,51.179256
2022-11-27T07:16:50.129Z,51.179245
2022-11-27T07:17:50.104Z,51.179230
2022-11-27T07:18:50.098Z,51.179241
2022-11-27T07:19:50.037Z,51.179272
2022-11-27T07:20:53.701Z,51.179279
2022-11-27T07:21:52.026Z,51.179295
2022-11-27T07:22:50.018Z,51.179276
2022-11-27T07:23:50.032Z,51.179283
2022-11-27T07:24:50.006Z,51.179298
2022-11-27T07:25:49.991Z,51.179306
2022-11-27T07:26:49.978Z,51.179298
2022-11-27T07:27:49.975Z,51.179295
2022-11-27T07:28:49.980Z,51.179283
2022-11-27T07:29:49.952Z,51.179256
2022-11-27T07:30:50.010Z,51.179279
2022-11-27T07:31:49.969Z,51.179298
2022-11-27T07:32:49.915Z,51.179264
2022-11-27T07:33:49.918Z,51.179226
2022-11-27T07:34:49.910Z,51.179237
2022-11-27T07:35:49.873Z,51.179253
2022-11-27T07:36:49.874Z,51.179276
2022-11-27T07:37:49.852Z,51.179241
2022-11-27T07:38:49.890Z,51.179256
2022-11-27T07:40:02.452Z,51.179245
2022-11-27T07:40:53.825Z,51.179241
2022-11-27T07:41:49.811Z,51.179272
2022-11-27T07:42:49.815Z,51.179230
2022-11-27T07:43:49.809Z,51.179279
2022-11-27T07:44:49.782Z,51.179268
2022-11-27T07:45:49.800Z,51.179264
2022-11-27T07:46:49.854Z,51.179253
2022-11-27T07:47:49.776Z,51.179241
2022-11-27T07:48:49.773Z,51.179249
2022-11-27T07:49:49.738Z,51.179279
2022-11-27T07:50:49.731Z,51.179253
2022-11-27T07:51:49.708Z,51.179214
2022-11-27T07:52:49.704Z,51.179260
2022-11-27T07:53:49.685Z,51.179214
2022-11-27T07:54:49.679Z,51.179203
2022-11-27T07:55:49.665Z,51.179195
2022-11-27T07:56:49.675Z,51.179230
2022-11-27T07:57:49.667Z,51.179276
2022-11-27T07:58:49.655Z,51.179276
2022-11-27T07:59:49.640Z,51.179234
2022-11-27T08:00:49.676Z,51.179245
2022-11-27T08:01:49.670Z,51.179283
2022-11-27T08:02:49.676Z,51.179287
2022-11-27T08:03:49.603Z,51.179264
2022-11-27T08:04:49.621Z,51.179253
2022-11-27T08:05:49.576Z,51.179249
2022-11-27T08:06:49.554Z,51.179245
2022-11-27T08:07:49.627Z,51.179268
2022-11-27T08:08:49.555Z,51.179249
2022-11-27T08:09:49.539Z,51.179199
2022-11-27T08:10:49.533Z,51.179199
2022-11-27T08:11:49.502Z,51.179207
2022-11-27T08:12:49.489Z,51.179237
2022-11-27T08:13:49.476Z,51.179253
2022-11-27T08:14:49.480Z,51.179276
2022-11-27T08:15:49.472Z,51.179276
2022-11-27T08:16:49.502Z,51.179279
2022-11-27T08:17:49.448Z,51.179264
2022-11-27T08:18:49.521Z,51.179211
2022-11-27T08:19:49.401Z,51.179123
2022-11-27T08:20:50.432Z,51.179234
2022-11-27T08:21:49.438Z,51.179268
2022-11-27T08:22:49.418Z,51.179272
2022-11-27T08:23:49.385Z,51.179264
2022-11-27T08:24:49.373Z,51.179291
2022-11-27T08:25:49.389Z,51.179344
2022-11-27T08:26:49.338Z,51.179302
2022-11-27T08:27:49.329Z,51.179317
2022-11-27T08:28:49.347Z,51.179340
2022-11-27T08:29:49.320Z,51.179379
2022-11-27T08:30:49.296Z,51.179348
2022-11-27T08:31:49.339Z,51.179333
2022-11-27T08:32:49.287Z,51.179283
2022-11-27T08:33:49.283Z,51.179287
2022-11-27T08:34:49.359Z,51.179367
2022-11-27T08:35:49.255Z,51.179367
2022-11-27T08:36:49.248Z,51.179390
2022-11-27T08:37:49.244Z,51.179371
2022-11-27T08:38:49.224Z,51.179340
2022-11-27T08:39:49.197Z,51.179329
2022-11-27T08:40:49.227Z,51.179314
2022-11-27T08:41:49.177Z,51.179340
2022-11-27T08:42:49.161Z,51.179352
2022-11-27T08:43:49.176Z,51.179333
2022-11-27T08:44:49.176Z,51.179306
2022-11-27T08:45:49.212Z,51.179325
2022-11-27T08:46:49.150Z,51.179329
2022-11-27T08:47:49.129Z,51.179359
2022-11-27T08:48:49.159Z,51.179375
2022-11-27T08:49:49.113Z,51.179367
2022-11-27T08:50:49.251Z,51.179356
2022-11-27T08:51:49.082Z,51.179317
2022-11-27T08:52:49.071Z,51.179344
2022-11-27T08:53:49.067Z,51.179329
2022-11-27T08:54:51.983Z,51.179298
2022-11-27T08:55:51.066Z,51.179287
2022-11-27T08:56:49.046Z,51.179337
2022-11-27T08:57:49.026Z,51.179310
2022-11-27T08:58:49.013Z,51.179279
2022-11-27T08:59:49.020Z,51.179245
2022-11-27T09:00:49.045Z,51.179256
2022-11-27T09:01:48.970Z,51.179249
2022-11-27T09:02:48.969Z,51.179237
2022-11-27T09:03:49.038Z,51.179264
2022-11-27T09:04:48.952Z,51.179226
2022-11-27T09:05:48.929Z,51.179245
2022-11-27T09:06:50.327Z,51.179226
2022-11-27T09:07:48.951Z,51.179268
2022-11-27T09:08:48.920Z,51.179291
2022-11-27T09:09:48.921Z,51.179276
2022-11-27T09:10:49.934Z,51.179283
2022-11-27T09:11:48.883Z,51.179302
2022-11-27T09:12:48.936Z,51.179317
2022-11-27T09:13:48.918Z,51.179291
2022-11-27T09:14:48.869Z,51.179249
2022-11-27T09:15:48.842Z,51.179287
2022-11-27T09:16:48.895Z,51.179287
2022-11-27T09:17:48.801Z,51.179287
2022-11-27T09:18:48.826Z,51.179276
2022-11-27T09:19:48.803Z,51.179272
2022-11-27T09:20:48.800Z,51.179230
2022-11-27T09:21:48.767Z,51.179214
2022-11-27T09:22:48.880Z,51.179234
2022-11-27T09:23:48.777Z,51.179268
2022-11-27T09:24:48.751Z,51.179253
2022-11-27T09:25:48.747Z,51.179211
2022-11-27T09:26:48.721Z,51.179230
2022-11-27T09:27:48.750Z,51.179245
2022-11-27T09:28:48.684Z,51.179237
2022-11-27T09:29:48.721Z,51.179237
2022-11-27T09:30:48.692Z,51.179226
2022-11-27T09:31:48.722Z,51.179253
2022-11-27T09:32:48.675Z,51.179234
2022-11-27T09:33:48.674Z,51.179226
2022-11-27T09:34:48.684Z,51.179218
2022-11-27T09:35:48.635Z,51.179226
2022-11-27T09:36:48.618Z,51.179211
2022-11-27T09:37:48.608Z,51.179199
2022-11-27T09:38:48.679Z,51.179195
2022-11-27T09:39:48.603Z,51.179188
2022-11-27T09:40:48.575Z,51.179176
2022-11-27T09:41:48.561Z,51.179192
2022-11-27T09:42:48.573Z,51.179222
2022-11-27T09:43:48.560Z,51.179222
2022-11-27T09:44:48.530Z,51.179234
2022-11-27T09:45:48.601Z,51.179245
2022-11-27T09:46:48.526Z,51.179207
2022-11-27T09:47:48.515Z,51.179188
2022-11-27T09:48:48.500Z,51.179199
2022-11-27T09:49:48.479Z,51.179237
2022-11-27T09:50:48.465Z,51.179260
2022-11-27T09:51:48.484Z,51.179237
2022-11-27T09:52:48.456Z,51.179199
2022-11-27T09:53:48.475Z,51.179176
2022-11-27T09:54:52.438Z,51.179169
2022-11-27T09:55:49.400Z,51.179207
2022-11-27T09:56:48.406Z,51.179207
2022-11-27T09:57:48.422Z,51.179203
2022-11-27T09:58:48.402Z,51.179199
2022-11-27T09:59:48.390Z,51.179211
2022-11-27T10:00:48.356Z,51.179180
2022-11-27T10:01:51.121Z,51.179161
2022-11-27T10:02:49.540Z,51.179203
2022-11-27T10:03:48.339Z,51.179188
2022-11-27T10:05:12.283Z,51.179188
2022-11-27T10:05:50.307Z,51.179214
2022-11-27T10:06:48.388Z,51.179230
2022-11-27T10:07:48.353Z,51.179222
2022-11-27T10:08:48.288Z,51.179157
2022-11-27T10:09:48.298Z,51.179161
2022-11-27T10:10:48.442Z,51.179176
2022-11-27T10:11:48.238Z,51.179199
2022-11-27T10:12:48.233Z,51.179150
2022-11-27T10:13:48.215Z,51.179146
2022-11-27T10:14:48.216Z,51.179176
2022-11-27T10:15:48.204Z,51.179203
2022-11-27T10:16:48.229Z,51.179195
2022-11-27T10:17:48.184Z,51.179188
2022-11-27T10:18:48.187Z,51.179203
2022-11-27T10:19:48.188Z,51.179211
2022-11-27T10:20:48.150Z,51.179211
2022-11-27T10:21:48.140Z,51.179199
2022-11-27T10:22:48.118Z,51.179188
2022-11-27T10:23:48.105Z,51.179203
2022-11-27T10:24:48.131Z,51.179203
2022-11-27T10:25:49.094Z,51.179218
2022-11-27T10:26:48.164Z,51.179203
2022-11-27T10:27:48.057Z,51.179173
2022-11-27T10:28:48.085Z,51.179169
2022-11-27T10:29:50.294Z,51.179169
2022-11-27T10:30:48.058Z,51.179188
2022-11-27T10:31:48.051Z,51.179211
2022-11-27T10:32:55.028Z,51.179207
2022-11-27T10:33:50.019Z,51.179230
2022-11-27T10:34:48.002Z,51.179195
2022-11-27T10:35:47.965Z,51.179214
2022-11-27T10:36:48.953Z,51.179249
2022-11-27T10:37:47.970Z,51.179230
2022-11-27T10:38:48.031Z,51.179199
2022-11-27T10:39:48.005Z,51.179256
2022-11-27T10:40:47.957Z,51.179260
2022-11-27T10:41:49.635Z,51.179207
2022-11-27T10:42:48.979Z,51.179222
2022-11-27T10:43:47.879Z,51.179222
2022-11-27T10:44:47.866Z,51.179199
2022-11-27T10:45:47.937Z,51.179180
2022-11-27T10:46:47.841Z,51.179218
2022-11-27T10:47:47.855Z,51.179245
2022-11-27T10:48:47.811Z,51.179253
2022-11-27T10:49:47.851Z,51.179249
2022-11-27T10:50:47.817Z,51.179161
2022-11-27T10:51:47.805Z,51.179199
2022-11-27T10:52:51.117Z,51.179245
2022-11-27T10:53:48.803Z,51.179272
2022-11-27T10:54:47.777Z,51.179279
2022-11-27T10:55:47.765Z,51.179253
2022-11-27T10:56:47.741Z,51.179226
2022-11-27T10:57:47.711Z,51.179222
2022-11-27T10:58:47.824Z,51.179226
2022-11-27T10:59:47.711Z,51.179249
2022-11-27T11:00:47.744Z,51.179287
2022-11-27T11:01:47.793Z,51.179272
2022-11-27T11:02:47.763Z,51.179256
2022-11-27T11:03:47.682Z,51.179268
2022-11-27T11:05:03.284Z,51.179276
2022-11-27T11:06:18.495Z,51.179245
2022-11-27T11:06:49.632Z,51.179245
2022-11-27T11:07:47.669Z,51.179272
2022-11-27T11:08:48.758Z,51.179279
2022-11-27T11:09:47.603Z,51.179276
2022-11-27T11:10:47.575Z,51.179264
2022-11-27T11:11:47.577Z,51.179268
2022-11-27T11:12:47.568Z,51.179253
2022-11-27T11:13:47.571Z,51.179260
2022-11-27T11:14:47.643Z,51.179218
2022-11-27T11:15:51.654Z,51.179230
2022-11-27T11:16:48.533Z,51.179237
2022-11-27T11:17:47.496Z,51.179230
2022-11-27T11:18:47.518Z,51.179245
2022-11-27T11:19:47.490Z,51.179256
2022-11-27T11:20:47.466Z,51.179256
2022-11-27T11:21:47.473Z,51.179234
2022-11-27T11:22:47.454Z,51.179253
2022-11-27T11:23:47.457Z,51.179249
2022-11-27T11:24:47.423Z,51.179287